createdAt,value
2022-09-02T00:00:47.078Z,100358.77
2022-09-02T00:01:51.331Z,100362.84
2022-09-02T00:02:55.434Z,100360.48
2022-09-02T00:04:02.444Z,100355.92
2022-09-02T00:05:06.770Z,100362.16
2022-09-02T00:06:13.088Z,100366.53
2022-09-02T00:07:17.794Z,100365.69
2022-09-02T00:08:21.957Z,100361.66
2022-09-02T00:09:27.801Z,100365.20
2022-09-02T00:10:34.450Z,100366.19
2022-09-02T00:11:41.072Z,100364.52
2022-09-02T00:12:46.564Z,100367.20
2022-09-02T00:13:51.690Z,100363.83
2022-09-02T00:14:55.656Z,100359.45
2022-09-02T00:15:59.743Z,100360.97
2022-09-02T00:17:06.402Z,100366.70
2022-09-02T00:18:12.560Z,100367.36
2022-09-02T00:19:19.948Z,100367.88
2022-09-02T00:20:25.465Z,100367.88
2022-09-02T00:21:31.670Z,100368.03
2022-09-02T00:22:35.649Z,100368.03
2022-09-02T00:23:40.067Z,100368.22
2022-09-02T00:24:44.032Z,100372.73
2022-09-02T00:25:48.080Z,100376.31
2022-09-02T00:26:55.322Z,100377.30
2022-09-02T00:27:58.626Z,100371.91
2022-09-02T00:29:04.414Z,100371.91
2022-09-02T00:30:09.167Z,100379.01
2022-09-02T00:31:16.148Z,100384.41
2022-09-02T00:32:21.683Z,100375.29
2022-09-02T00:33:27.251Z,100375.29
2022-09-02T00:34:31.241Z,100376.31
2022-09-02T00:35:36.689Z,100376.31
2022-09-02T00:36:40.896Z,100382.01
2022-09-02T00:37:44.814Z,100383.03
2022-09-02T00:38:49.026Z,100378.66
2022-09-02T00:39:53.849Z,100378.66
2022-09-02T00:40:58.009Z,100384.71
2022-09-02T00:42:07.295Z,100387.41
2022-09-02T00:43:11.476Z,100386.56
2022-09-02T00:44:18.051Z,100390.29
2022-09-02T00:45:23.169Z,100392.98
2022-09-02T00:46:30.448Z,100382.86
2022-09-02T00:47:35.199Z,100385.56
2022-09-02T00:48:42.531Z,100396.50
2022-09-02T00:49:49.912Z,100394.83
2022-09-02T00:50:54.501Z,100396.66
2022-09-02T00:52:07.224Z,100396.66
2022-09-02T00:53:14.627Z,100397.67
2022-09-02T00:54:20.990Z,100402.56
2022-09-02T00:55:28.305Z,100404.58
2022-09-02T00:56:34.247Z,100403.73
2022-09-02T00:57:56.374Z,100402.90
2022-09-02T00:59:01.652Z,100402.03
2022-09-02T01:00:14.637Z,100410.30
2022-09-02T01:01:21.637Z,100409.47
2022-09-02T01:02:26.161Z,100409.47
2022-09-02T01:03:33.060Z,100411.29
2022-09-02T01:04:37.211Z,100411.29
2022-09-02T01:05:44.570Z,100404.55
2022-09-02T01:06:48.887Z,100407.36
2022-09-02T01:07:55.049Z,100413.09
2022-09-02T01:09:04.563Z,100413.09
2022-09-02T01:10:12.949Z,100415.78
2022-09-02T01:11:16.992Z,100409.55
2022-09-02T01:12:21.056Z,100415.97
2022-09-02T01:13:28.029Z,100415.97
2022-09-02T01:14:34.844Z,100409.88
2022-09-02T01:15:41.362Z,100420.82
2022-09-02T01:16:50.175Z,100415.61
2022-09-02T01:17:57.068Z,100415.94
2022-09-02T01:19:04.483Z,100417.10
2022-09-02T01:20:12.091Z,100417.10
2022-09-02T01:21:16.370Z,100411.86
2022-09-02T01:22:24.431Z,100415.91
2022-09-02T01:23:33.771Z,100421.44
2022-09-02T01:24:35.957Z,100418.05
2022-09-02T01:25:40.079Z,100418.05
2022-09-02T01:26:45.677Z,100416.53
2022-09-02T01:27:51.540Z,100418.38
2022-09-02T01:28:57.158Z,100420.38
2022-09-02T01:30:03.574Z,100418.70
2022-09-02T01:31:07.551Z,100424.25
2022-09-02T01:32:12.485Z,100426.28
2022-09-02T01:33:16.856Z,100423.73
2022-09-02T01:34:21.316Z,100423.91
2022-09-02T01:35:25.539Z,100423.91
2022-09-02T01:36:29.610Z,100423.22
2022-09-02T01:37:35.148Z,100429.77
2022-09-02T01:38:39.140Z,100432.62
2022-09-02T01:39:43.142Z,100432.62
2022-09-02T01:40:48.041Z,100435.64
2022-09-02T01:41:52.808Z,100439.34
2022-09-02T01:43:04.339Z,100433.95
2022-09-02T01:44:10.618Z,100437.81
2022-09-02T01:45:15.355Z,100433.41
2022-09-02T01:46:20.227Z,100436.28
2022-09-02T01:47:26.124Z,100439.30
2022-09-02T01:48:30.158Z,100443.16
2022-09-02T01:49:35.934Z,100440.60
2022-09-02T01:50:46.813Z,100436.38
2022-09-02T01:51:48.800Z,100440.92
2022-09-02T01:52:55.545Z,100438.55
2022-09-02T01:53:59.661Z,100442.27
2022-09-02T01:55:04.932Z,100443.94
2022-09-02T01:56:09.280Z,100443.94
2022-09-02T01:57:13.467Z,100448.63
2022-09-02T01:58:18.888Z,100445.24
2022-09-02T01:59:23.058Z,100445.56
2022-09-02T02:00:28.096Z,100442.20
2022-09-02T02:01:34.369Z,100446.72
2022-09-02T02:02:38.465Z,100451.59
2022-09-02T02:03:42.497Z,100449.91
2022-09-02T02:04:55.862Z,100449.91
2022-09-02T02:05:57.986Z,100454.74
2022-09-02T02:07:01.977Z,100454.74
2022-09-02T02:08:06.437Z,100454.22
2022-09-02T02:09:11.836Z,100457.05
2022-09-02T02:10:20.268Z,100457.05
2022-09-02T02:11:26.061Z,100455.52
2022-09-02T02:12:30.382Z,100456.53
2022-09-02T02:13:34.400Z,100460.24
2022-09-02T02:14:38.638Z,100454.02
2022-09-02T02:15:44.045Z,100456.85
2022-09-02T02:16:51.151Z,100456.85
2022-09-02T02:17:55.199Z,100456.33
2022-09-02T02:18:59.775Z,100461.85
2022-09-02T02:20:05.604Z,100459.30
2022-09-02T02:21:12.445Z,100454.09
2022-09-02T02:22:18.049Z,100458.64
2022-09-02T02:23:23.604Z,100457.10
2022-09-02T02:24:30.088Z,100457.10
2022-09-02T02:25:33.977Z,100453.56
2022-09-02T02:26:38.246Z,100459.80
2022-09-02T02:27:43.704Z,100459.80
2022-09-02T02:28:47.941Z,100454.41
2022-09-02T02:29:52.098Z,100457.10
2022-09-02T02:30:58.339Z,100455.25
2022-09-02T02:32:04.170Z,100454.41
2022-09-02T02:33:08.278Z,100459.94
2022-09-02T02:34:12.312Z,100459.94
2022-09-02T02:35:20.118Z,100438.11
2022-09-02T02:36:27.780Z,100461.78
2022-09-02T02:37:31.858Z,100464.62
2022-09-02T02:38:38.135Z,100457.55
2022-09-02T02:39:43.545Z,100457.55
2022-09-02T02:40:47.812Z,100453.33
2022-09-02T02:41:51.877Z,100452.62
2022-09-02T02:42:55.950Z,100455.31
2022-09-02T02:44:01.610Z,100453.64
2022-09-02T02:45:06.041Z,100453.64
2022-09-02T02:46:10.722Z,100451.78
2022-09-02T02:47:14.978Z,100453.64
2022-09-02T02:48:19.328Z,100453.64
2022-09-02T02:49:24.436Z,100458.18
2022-09-02T02:50:28.999Z,100453.95
2022-09-02T02:51:34.329Z,100457.48
2022-09-02T02:52:40.471Z,100458.50
2022-09-02T02:53:44.550Z,100462.17
2022-09-02T02:54:48.584Z,100465.03
2022-09-02T02:55:52.917Z,100465.03
2022-09-02T02:56:56.901Z,100465.03
2022-09-02T02:58:02.566Z,100465.70
2022-09-02T02:59:06.678Z,100465.70
2022-09-02T03:00:14.738Z,100465.87
2022-09-02T03:01:19.207Z,100470.10
2022-09-02T03:02:23.383Z,100470.10
2022-09-02T03:03:29.733Z,100465.87
2022-09-02T03:04:34.054Z,100474.64
2022-09-02T03:05:39.778Z,100351.96
2022-09-02T03:06:43.813Z,100468.39
2022-09-02T03:07:47.918Z,100475.80
2022-09-02T03:08:52.069Z,100475.80
2022-09-02T03:09:56.232Z,100467.72
2022-09-02T03:11:00.226Z,100470.73
2022-09-02T03:12:04.372Z,100446.87
2022-09-02T03:13:12.221Z,100446.87
2022-09-02T03:14:16.164Z,100475.09
2022-09-02T03:15:21.650Z,100475.09
2022-09-02T03:16:26.436Z,100473.25
2022-09-02T03:17:32.192Z,100473.25
2022-09-02T03:18:36.296Z,100479.16
2022-09-02T03:19:40.287Z,100482.55
2022-09-02T03:20:44.715Z,100480.25
2022-09-02T03:21:48.769Z,100480.25
2022-09-02T03:22:55.521Z,100477.45
2022-09-02T03:23:59.687Z,100486.34
2022-09-02T03:25:08.175Z,100488.84
2022-09-02T03:26:15.792Z,100490.33
2022-09-02T03:27:21.492Z,100490.79
2022-09-02T03:28:30.194Z,100487.72
2022-09-02T03:29:34.736Z,100487.72
2022-09-02T03:30:43.767Z,100494.77
2022-09-02T03:31:47.824Z,100498.70
2022-09-02T03:34:05.908Z,100497.55
2022-09-02T03:34:36.107Z,100494.50
2022-09-02T03:35:13.436Z,100499.77
2022-09-02T03:36:27.957Z,100499.77
2022-09-02T03:37:31.951Z,100502.91
2022-09-02T03:38:36.739Z,100509.65
2022-09-02T03:39:40.703Z,100507.41
2022-09-02T03:40:44.881Z,100507.41
2022-09-02T03:41:49.071Z,100509.49
2022-09-02T03:42:56.735Z,100508.13
2022-09-02T03:43:59.568Z,100517.84
2022-09-02T03:45:05.777Z,100522.13
2022-09-02T03:46:12.915Z,100511.17
2022-09-02T03:47:15.660Z,100511.17
2022-09-02T03:48:20.288Z,100522.63
2022-09-02T03:49:24.288Z,100519.11
2022-09-02T03:50:35.290Z,100519.11
2022-09-02T03:51:43.537Z,100517.31
2022-09-02T03:52:47.494Z,100522.09
2022-09-02T03:53:52.052Z,100529.34
2022-09-02T03:54:56.480Z,100537.84
2022-09-02T03:56:13.051Z,100534.86
2022-09-02T03:57:17.527Z,100534.86
2022-09-02T03:58:22.235Z,100544.77
2022-09-02T03:59:26.489Z,100539.89
2022-09-02T04:00:30.928Z,100539.89
2022-09-02T04:01:35.383Z,100544.69
2022-09-02T04:02:39.713Z,100548.13
2022-09-02T04:03:45.799Z,100546.13
2022-09-02T04:04:49.645Z,100548.83
2022-09-02T04:05:53.878Z,100547.66
2022-09-02T04:06:58.742Z,100551.30
2022-09-02T04:08:02.979Z,100557.62
2022-09-02T04:09:07.718Z,100549.16
2022-09-02T04:10:13.334Z,100554.25
2022-09-02T04:11:20.341Z,100553.94
2022-09-02T04:12:24.492Z,100550.92
2022-09-02T04:13:31.773Z,100557.89
2022-09-02T04:14:37.549Z,100554.63
2022-09-02T04:15:44.735Z,100556.19
2022-09-02T04:16:48.807Z,100556.19
2022-09-02T04:17:54.210Z,100557.36
2022-09-02T04:19:01.626Z,100557.36
2022-09-02T04:20:07.551Z,100559.95
2022-09-02T04:21:12.394Z,100566.29
2022-09-02T04:22:16.369Z,100559.63
2022-09-02T04:23:20.461Z,100562.62
2022-09-02T04:24:24.707Z,100562.62
2022-09-02T04:25:28.726Z,100562.27
2022-09-02T04:26:34.423Z,100562.27
2022-09-02T04:27:38.936Z,100563.98
2022-09-02T04:28:44.564Z,100561.31
2022-09-02T04:29:49.875Z,100567.83
2022-09-02T04:30:55.573Z,100569.55
2022-09-02T04:32:02.440Z,100564.92
2022-09-02T04:33:06.510Z,100564.92
2022-09-02T04:34:10.548Z,100564.96
2022-09-02T04:35:15.831Z,100564.96
2022-09-02T04:36:21.359Z,100564.97
2022-09-02T04:37:27.629Z,100565.41
2022-09-02T04:38:31.797Z,100475.09
2022-09-02T04:39:35.950Z,100475.09
2022-09-02T04:40:45.364Z,100568.21
2022-09-02T04:41:49.413Z,100568.21
2022-09-02T04:42:55.298Z,100574.31
2022-09-02T04:44:02.125Z,100574.31
2022-09-02T04:45:08.447Z,100568.86
2022-09-02T04:46:15.747Z,100569.28
2022-09-02T04:47:19.912Z,100570.11
2022-09-02T04:48:23.867Z,100570.11
2022-09-02T04:49:27.935Z,100580.61
2022-09-02T04:50:33.652Z,100576.39
2022-09-02T04:51:37.965Z,100568.00
2022-09-02T04:52:43.988Z,100568.00
2022-09-02T04:53:49.204Z,100567.97
2022-09-02T04:54:53.151Z,100571.74
2022-09-02T04:55:58.787Z,100571.74
2022-09-02T04:57:04.420Z,100572.17
2022-09-02T04:58:09.566Z,100572.17
2022-09-02T04:59:13.591Z,100575.14
2022-09-02T05:00:18.269Z,100575.14
2022-09-02T05:01:25.613Z,100575.77
2022-09-02T05:02:29.604Z,100570.52
2022-09-02T05:03:33.638Z,100574.70
2022-09-02T05:04:37.670Z,100571.34
2022-09-02T05:05:41.638Z,100571.34
2022-09-02T05:06:45.807Z,100570.94
2022-09-02T05:07:49.832Z,100576.80
2022-09-02T05:08:55.949Z,100579.33
2022-09-02T05:10:00.266Z,100578.91
2022-09-02T05:11:06.461Z,100575.98
2022-09-02T05:12:10.478Z,100575.98
2022-09-02T05:13:14.437Z,100584.38
2022-09-02T05:14:20.078Z,100584.38
2022-09-02T05:15:24.111Z,100572.20
2022-09-02T05:16:33.967Z,100572.20
2022-09-02T05:17:37.736Z,100571.80
2022-09-02T05:18:46.646Z,100578.93
2022-09-02T05:19:50.658Z,100573.47
2022-09-02T05:20:54.830Z,100577.67
2022-09-02T05:22:00.398Z,100573.27
2022-09-02T05:23:06.528Z,100573.27
2022-09-02T05:24:12.302Z,100569.91
2022-09-02T05:25:16.915Z,100569.91
2022-09-02T05:26:21.716Z,100357.64
2022-09-02T05:27:26.811Z,100578.08
2022-09-02T05:28:31.049Z,100582.28
2022-09-02T05:29:36.539Z,100578.72
2022-09-02T05:30:42.902Z,100583.77
2022-09-02T05:31:47.926Z,100586.06
2022-09-02T05:32:51.883Z,100577.67
2022-09-02T05:33:56.074Z,100587.77
2022-09-02T05:35:01.855Z,100587.77
2022-09-02T05:36:10.832Z,100581.89
2022-09-02T05:37:17.018Z,100592.39
2022-09-02T05:38:20.966Z,100590.27
2022-09-02T05:39:24.925Z,100586.48
2022-09-02T05:40:29.528Z,100596.58
2022-09-02T05:41:35.702Z,100591.52
2022-09-02T05:42:40.611Z,100591.52
2022-09-02T05:43:45.433Z,100600.37
2022-09-02T05:44:49.464Z,100600.37
2022-09-02T05:45:55.024Z,100601.41
2022-09-02T05:46:59.215Z,100595.72
2022-09-02T05:48:03.408Z,100594.89
2022-09-02T05:49:07.492Z,100600.36
2022-09-02T05:50:13.338Z,100600.75
2022-09-02T05:51:18.337Z,100600.75
2022-09-02T05:52:24.079Z,100603.70
2022-09-02T05:53:29.584Z,100593.00
2022-09-02T05:54:35.989Z,100593.00
2022-09-02T05:55:40.088Z,100596.14
2022-09-02T05:56:45.948Z,100605.18
2022-09-02T05:57:49.891Z,100600.11
2022-09-02T05:58:55.618Z,100607.08
2022-09-02T05:59:59.665Z,100607.08
2022-09-02T06:01:11.993Z,100599.73
2022-09-02T06:02:17.837Z,100607.50
2022-09-02T06:03:23.737Z,100609.19
2022-09-02T06:04:27.804Z,100609.19
2022-09-02T06:05:31.694Z,100606.47
2022-09-02T06:06:37.095Z,100611.71
2022-09-02T06:07:41.135Z,100611.71
2022-09-02T06:08:45.565Z,100604.98
2022-09-02T06:09:50.462Z,100600.36
2022-09-02T06:10:56.036Z,100606.47
2022-09-02T06:12:00.536Z,100605.39
2022-09-02T06:13:04.517Z,100608.98
2022-09-02T06:14:08.931Z,100608.98
2022-09-02T06:15:13.048Z,100605.81
2022-09-02T06:16:21.558Z,100603.09
2022-09-02T06:17:25.888Z,100609.18
2022-09-02T06:18:29.972Z,100609.18
2022-09-02T06:19:34.766Z,100615.05
2022-09-02T06:20:42.866Z,100602.04
2022-09-02T06:21:48.392Z,100606.24
2022-09-02T06:22:52.354Z,100606.24
2022-09-02T06:23:57.910Z,100606.65
2022-09-02T06:25:02.015Z,100612.11
2022-09-02T06:26:08.198Z,100616.55
2022-09-02T06:27:12.149Z,100616.55
2022-09-02T06:28:20.995Z,100618.62
2022-09-02T06:29:27.136Z,100618.86
2022-09-02T06:30:33.210Z,100624.33
2022-09-02T06:31:41.590Z,100624.33
2022-09-02T06:32:50.453Z,100616.12
2022-09-02T06:33:57.505Z,100625.55
2022-09-02T06:35:02.778Z,100624.69
2022-09-02T06:36:09.240Z,100624.69
2022-09-02T06:37:13.325Z,100623.86
2022-09-02T06:38:17.750Z,100623.02
2022-09-02T06:39:23.308Z,100624.29
2022-09-02T06:40:27.754Z,100615.89
2022-09-02T06:41:33.687Z,100624.69
2022-09-02T06:42:37.734Z,100621.95
2022-09-02T06:43:42.816Z,100630.16
2022-09-02T06:44:49.716Z,100617.13
2022-09-02T06:45:53.811Z,100619.22
2022-09-02T06:46:59.533Z,100619.22
2022-09-02T06:48:07.626Z,100624.09
2022-09-02T06:49:16.370Z,100624.09
2022-09-02T06:50:17.673Z,100631.05
2022-09-02T06:51:27.426Z,100631.05
2022-09-02T06:52:31.389Z,100631.27
2022-09-02T06:53:35.357Z,100623.87
2022-09-02T06:54:39.329Z,100598.23
2022-09-02T06:55:46.279Z,100627.68
2022-09-02T06:56:51.702Z,100626.41
2022-09-02T06:57:56.930Z,100630.18
2022-09-02T06:59:01.450Z,100625.14
2022-09-02T07:00:09.535Z,100630.63
2022-09-02T07:01:28.981Z,100625.58
2022-09-02T07:02:34.594Z,100630.20
2022-09-02T07:03:40.144Z,100628.71
2022-09-02T07:04:45.641Z,100640.70
2022-09-02T07:06:01.085Z,100635.45
2022-09-02T07:07:09.203Z,100637.36
2022-09-02T07:08:13.132Z,100637.36
2022-09-02T07:09:21.733Z,100639.88
2022-09-02T07:10:25.791Z,100645.95
2022-09-02T07:11:29.825Z,100642.79
2022-09-02T07:12:37.668Z,100640.92
2022-09-02T07:13:41.994Z,100640.92
2022-09-02T07:14:46.792Z,100647.83
2022-09-02T07:15:50.819Z,100643.20
2022-09-02T07:16:57.437Z,100650.13
2022-09-02T07:18:01.891Z,100650.13
2022-09-02T07:19:11.580Z,100646.94
2022-09-02T07:20:12.650Z,100653.87
2022-09-02T07:21:16.726Z,100642.06
2022-09-02T07:22:20.744Z,100642.45
2022-09-02T07:23:24.757Z,100642.45
2022-09-02T07:24:28.807Z,100648.13
2022-09-02T07:25:35.871Z,100648.13
2022-09-02T07:26:38.807Z,100644.98
2022-09-02T07:27:42.839Z,100650.86
2022-09-02T07:28:49.066Z,100647.30
2022-09-02T07:29:53.033Z,100648.20
2022-09-02T07:30:59.817Z,100637.66
2022-09-02T07:32:06.835Z,100650.94
2022-09-02T07:33:12.960Z,100649.47
2022-09-02T07:34:20.020Z,100636.03
2022-09-02T07:35:25.658Z,100644.47
2022-09-02T07:36:30.255Z,100644.47
2022-09-02T07:37:34.338Z,100647.60
2022-09-02T07:38:39.882Z,100644.87
2022-09-02T07:39:46.995Z,100644.87
2022-09-02T07:40:51.131Z,100644.06
2022-09-02T07:41:56.960Z,100644.06
2022-09-02T07:43:00.974Z,100641.97
2022-09-02T07:44:06.553Z,100641.97
2022-09-02T07:45:11.490Z,100642.42
2022-09-02T07:46:16.787Z,100644.91
2022-09-02T07:47:20.823Z,100646.59
2022-09-02T07:48:27.705Z,100646.59
2022-09-02T07:50:15.621Z,100644.48
2022-09-02T07:50:39.407Z,100644.48
2022-09-02T07:51:46.451Z,100642.38
2022-09-02T07:52:50.519Z,100641.34
2022-09-02T07:53:54.740Z,100639.85
2022-09-02T07:54:58.703Z,100638.17
2022-09-02T07:56:03.814Z,100638.42
2022-09-02T07:57:09.361Z,100638.20
2022-09-02T07:58:16.064Z,100637.98
2022-09-02T07:59:21.167Z,100632.72
2022-09-02T08:00:26.260Z,100644.06
2022-09-02T08:01:31.551Z,100636.03
2022-09-02T08:02:38.624Z,100636.03
2022-09-02T08:03:44.819Z,100639.80
2022-09-02T08:04:50.423Z,100639.12
2022-09-02T08:05:57.006Z,100643.72
2022-09-02T08:07:00.694Z,100643.72
2022-09-02T08:08:05.916Z,100639.32
2022-09-02T08:09:11.251Z,100645.66
2022-09-02T08:10:16.311Z,100641.83
2022-09-02T08:11:20.904Z,100635.52
2022-09-02T08:12:24.876Z,100638.06
2022-09-02T08:13:28.996Z,100638.06
2022-09-02T08:14:33.056Z,100639.76
2022-09-02T08:15:37.262Z,100639.96
2022-09-02T08:16:41.927Z,100639.76
2022-09-02T08:17:48.494Z,100637.42
2022-09-02T08:18:53.356Z,100640.14
2022-09-02T08:19:57.555Z,100643.48
2022-09-02T08:21:01.639Z,100642.64
2022-09-02T08:22:08.521Z,100635.52
2022-09-02T08:23:19.492Z,100635.52
2022-09-02T08:24:18.211Z,100628.62
2022-09-02T08:25:22.238Z,100628.62
2022-09-02T08:26:26.956Z,100639.59
2022-09-02T08:27:31.158Z,100639.59
2022-09-02T08:28:35.332Z,100632.89
2022-09-02T08:29:40.703Z,100632.89
2022-09-02T08:30:46.218Z,100637.32
2022-09-02T08:31:53.484Z,100637.76
2022-09-02T08:32:56.473Z,100636.66
2022-09-02T08:34:01.260Z,100636.66
2022-09-02T08:35:06.507Z,100633.89
2022-09-02T08:36:11.350Z,100632.19
2022-09-02T08:37:15.300Z,100632.19
2022-09-02T08:38:19.259Z,100628.77
2022-09-02T08:39:25.592Z,100623.48
2022-09-02T08:40:39.927Z,100624.50
2022-09-02T08:42:04.764Z,100621.90
2022-09-02T08:43:26.990Z,100615.12
2022-09-02T08:44:32.546Z,100625.24
2022-09-02T08:45:40.417Z,100627.27
2022-09-02T08:46:44.851Z,100624.28
2022-09-02T08:47:52.137Z,100624.28
2022-09-02T08:49:17.237Z,100629.66
2022-09-02T08:50:23.945Z,100624.57
2022-09-02T08:51:39.780Z,100621.66
2022-09-02T08:52:52.936Z,100622.66
2022-09-02T08:54:03.898Z,100623.05
2022-09-02T08:55:16.460Z,100622.32
2022-09-02T08:56:21.468Z,100621.03
2022-09-02T08:57:26.796Z,100624.02
2022-09-02T08:58:40.941Z,100627.59
2022-09-02T08:59:48.129Z,100617.19
2022-09-02T09:01:11.674Z,100625.17
2022-09-02T09:02:38.137Z,100619.69
2022-09-02T09:04:02.955Z,100619.69
2022-09-02T09:05:35.452Z,100617.89
2022-09-02T09:07:00.785Z,100614.70
2022-09-02T09:08:28.656Z,100616.85
2022-09-02T09:09:47.509Z,100617.92
2022-09-02T09:11:21.612Z,100623.16
2022-09-02T09:12:34.637Z,100620.42
2022-09-02T09:13:45.904Z,100615.74
2022-09-02T09:14:55.619Z,100615.74
2022-09-02T09:16:11.448Z,100607.89
2022-09-02T09:17:27.137Z,100607.89
2022-09-02T09:18:40.130Z,100605.97
2022-09-02T09:19:49.889Z,100615.58
2022-09-02T09:20:53.945Z,100610.31
2022-09-02T09:21:59.378Z,100610.31
2022-09-02T09:23:24.929Z,100604.02
2022-09-02T09:24:40.167Z,100611.42
2022-09-02T09:25:47.395Z,100619.45
2022-09-02T09:26:53.323Z,100613.38
2022-09-02T09:28:01.327Z,100613.38
2022-09-02T09:29:06.117Z,100623.05
2022-09-02T09:30:15.004Z,100623.05
2022-09-02T09:31:24.210Z,100479.82
2022-09-02T09:32:34.297Z,100616.52
2022-09-02T09:33:38.325Z,100616.52
2022-09-02T09:34:57.449Z,100613.98
2022-09-02T09:36:01.335Z,100624.69
2022-09-02T09:37:05.386Z,100619.86
2022-09-02T09:38:12.359Z,100619.86
2022-09-02T09:39:31.126Z,100616.49
2022-09-02T09:40:35.337Z,100617.55
2022-09-02T09:41:40.111Z,100617.55
2022-09-02T09:42:49.681Z,100612.74
2022-09-02T09:43:50.825Z,100612.74
2022-09-02T09:44:54.878Z,100615.48
2022-09-02T09:45:58.915Z,100612.95
2022-09-02T09:47:05.992Z,100619.22
2022-09-02T09:48:31.680Z,100619.22
2022-09-02T09:49:38.328Z,100613.38
2022-09-02T09:50:47.530Z,100596.15
2022-09-02T09:51:55.821Z,100613.37
2022-09-02T09:53:17.429Z,100613.37
2022-09-02T09:54:22.822Z,100619.30
2022-09-02T09:55:26.921Z,100619.30
2022-09-02T09:56:37.231Z,100616.77
2022-09-02T09:57:45.566Z,100614.21
2022-09-02T09:58:49.664Z,100616.72
2022-09-02T09:59:53.764Z,100617.98
2022-09-02T10:00:58.583Z,100617.98
2022-09-02T10:02:02.936Z,100614.62
2022-09-02T10:03:07.733Z,100615.89
2022-09-02T10:04:39.505Z,100615.89
2022-09-02T10:05:29.284Z,100614.62
2022-09-02T10:06:39.290Z,100608.95
2022-09-02T10:07:45.629Z,100620.52
2022-09-02T10:08:58.175Z,100623.25
2022-09-02T10:10:23.291Z,100612.95
2022-09-02T10:11:34.870Z,100612.95
2022-09-02T10:12:38.534Z,100617.58
2022-09-02T10:13:43.642Z,100610.42
2022-09-02T10:14:49.958Z,100618.42
2022-09-02T10:16:24.876Z,100611.91
2022-09-02T10:17:41.524Z,100609.38
2022-09-02T10:18:49.229Z,100613.18
2022-09-02T10:20:04.902Z,100610.65
2022-09-02T10:21:15.492Z,100608.29
2022-09-02T10:22:58.457Z,100608.92
2022-09-02T10:23:54.851Z,100611.62
2022-09-02T10:25:09.527Z,100609.09
2022-09-02T10:26:40.589Z,100609.09
2022-09-02T10:28:20.349Z,100601.52
2022-09-02T10:29:45.432Z,100601.52
2022-09-02T10:31:10.489Z,100596.09
2022-09-02T10:32:23.103Z,100596.09
2022-09-02T10:33:32.558Z,100603.85
2022-09-02T10:35:10.532Z,100607.02
2022-09-02T10:36:27.639Z,100609.55
2022-09-02T10:37:53.597Z,100607.45
2022-09-02T10:39:06.379Z,100606.63
2022-09-02T10:40:14.398Z,100607.25
2022-09-02T10:41:21.384Z,100602.02
2022-09-02T10:42:31.115Z,100610.85
2022-09-02T10:44:10.635Z,100610.85
2022-09-02T10:45:20.564Z,100604.77
2022-09-02T10:46:26.646Z,100605.41
2022-09-02T10:47:39.449Z,100607.30
2022-09-02T10:48:55.317Z,100607.30
2022-09-02T10:50:08.609Z,100608.97
2022-09-02T10:51:39.467Z,100606.66
2022-09-02T10:53:01.330Z,100609.63
2022-09-02T10:54:25.351Z,100609.63
2022-09-02T10:55:49.621Z,100613.20
2022-09-02T10:56:55.360Z,100613.20
2022-09-02T10:58:07.093Z,100618.44
2022-09-02T10:59:17.059Z,100618.44
2022-09-02T11:00:22.793Z,100615.08
2022-09-02T11:01:32.487Z,100612.55
2022-09-02T11:03:09.274Z,100615.48
2022-09-02T11:04:37.059Z,100617.98
2022-09-02T11:05:59.186Z,100617.98
2022-09-02T11:07:06.159Z,100617.13
2022-09-02T11:08:31.499Z,100615.69
2022-09-02T11:09:53.321Z,100613.78
2022-09-02T11:11:03.721Z,100612.55
2022-09-02T11:12:14.845Z,100612.55
2022-09-02T11:13:21.833Z,100615.05
2022-09-02T11:14:28.830Z,100586.05
2022-09-02T11:15:41.754Z,100612.95
2022-09-02T11:16:49.083Z,100611.89
2022-09-02T11:17:58.705Z,100605.78
2022-09-02T11:19:08.734Z,100612.95
2022-09-02T11:20:16.127Z,100612.95
2022-09-02T11:21:32.714Z,100609.59
2022-09-02T11:22:55.632Z,100614.84
2022-09-02T11:24:08.610Z,100606.22
2022-09-02T11:25:18.369Z,100601.38
2022-09-02T11:26:31.208Z,100610.02
2022-09-02T11:27:43.903Z,100610.02
2022-09-02T11:28:50.891Z,100613.18
2022-09-02T11:30:21.386Z,100613.18
2022-09-02T11:31:53.651Z,100609.78
2022-09-02T11:33:06.507Z,100606.22
2022-09-02T11:34:16.209Z,100606.22
2022-09-02T11:35:29.283Z,100603.72
2022-09-02T11:36:39.701Z,100605.38
2022-09-02T11:37:48.239Z,100597.38
2022-09-02T11:38:56.749Z,100597.38
2022-09-02T11:40:30.303Z,100600.14
2022-09-02T11:41:37.356Z,100593.64
2022-09-02T11:42:49.885Z,100597.63
2022-09-02T11:44:16.379Z,100597.63
2022-09-02T11:45:35.089Z,100602.04
2022-09-02T11:47:14.990Z,100602.04
2022-09-02T11:48:23.522Z,100598.46
2022-09-02T11:49:36.329Z,100605.00
2022-09-02T11:51:10.243Z,100602.47
2022-09-02T11:52:25.826Z,100602.47
2022-09-02T11:53:44.815Z,100600.56
2022-09-02T11:54:51.893Z,100609.18
2022-09-02T11:56:01.670Z,100596.98
2022-09-02T11:57:06.957Z,100599.73
2022-09-02T11:58:10.969Z,100595.31
2022-09-02T11:59:23.708Z,100595.31
2022-09-02T12:00:36.667Z,100595.52
2022-09-02T12:01:52.435Z,100589.62
2022-09-02T12:03:11.512Z,100604.55
2022-09-02T12:04:56.145Z,100595.52
2022-09-02T12:05:34.137Z,100595.73
2022-09-02T12:06:40.074Z,100593.83
2022-09-02T12:07:49.360Z,100591.53
2022-09-02T12:08:56.321Z,100585.63
2022-09-02T12:10:00.309Z,100590.05
2022-09-02T12:11:09.084Z,100590.05
2022-09-02T12:12:32.236Z,100595.29
2022-09-02T12:13:41.346Z,100587.73
2022-09-02T12:14:51.413Z,100587.73
2022-09-02T12:16:17.842Z,100592.38
2022-09-02T12:17:45.838Z,100586.66
2022-09-02T12:18:55.893Z,100583.88
2022-09-02T12:19:59.995Z,100592.48
2022-09-02T12:21:07.460Z,100592.48
2022-09-02T12:22:21.868Z,100580.23
2022-09-02T12:23:55.173Z,100587.79
2022-09-02T12:25:01.432Z,100587.79
2022-09-02T12:26:11.937Z,100576.59
2022-09-02T12:27:15.923Z,100579.14
2022-09-02T12:28:26.179Z,100575.16
2022-09-02T12:29:34.857Z,100575.16
2022-09-02T12:31:01.472Z,100569.73
2022-09-02T12:32:05.936Z,100582.27
2022-09-02T12:33:13.634Z,100593.84
2022-09-02T12:34:29.639Z,100593.84
2022-09-02T12:35:37.267Z,100590.05
2022-09-02T12:36:46.284Z,100590.05
2022-09-02T12:37:56.049Z,100590.09
2022-09-02T12:39:27.067Z,100590.09
2022-09-02T12:40:35.184Z,100586.09
2022-09-02T12:41:43.214Z,100589.50
2022-09-02T12:42:50.338Z,100581.58
2022-09-02T12:44:14.134Z,100584.95
2022-09-02T12:45:29.391Z,100586.02
2022-09-02T12:46:40.488Z,100594.85
2022-09-02T12:47:59.140Z,100590.66
2022-09-02T12:49:06.086Z,100585.19
2022-09-02T12:50:33.967Z,100585.19
2022-09-02T12:51:57.418Z,100591.28
2022-09-02T12:53:26.639Z,100584.98
2022-09-02T12:54:48.978Z,100590.45
2022-09-02T12:55:58.589Z,100588.12
2022-09-02T12:57:04.108Z,100585.19